sensor_id;sensor_type;location;lat;lon;timestamp;pressure;altitude;pressure_sealevel;temperature;humidity
29247;BME280;16272;48.188;9.964;2023-02-02T00:00:45;96426.28;;;3.39;68.67
29247;BME280;16272;48.188;9.964;2023-02-02T00:03:11;96410.13;;;3.31;69.00
29247;BME280;16272;48.188;9.964;2023-02-02T00:05:36;96415.84;;;3.38;69.27
29247;BME280;16272;48.188;9.964;2023-02-02T00:08:03;96399.63;;;3.17;69.32
29247;BME280;16272;48.188;9.964;2023-02-02T00:10:28;96412.31;;;3.39;69.01
29247;BME280;16272;48.188;9.964;2023-02-02T00:12:53;96422.34;;;3.32;68.90
29247;BME280;16272;48.188;9.964;2023-02-02T00:15:22;96412.66;;;3.33;69.68
29247;BME280;16272;48.188;9.964;2023-02-02T00:17:47;96403.03;;;3.33;69.29
29247;BME280;16272;48.188;9.964;2023-02-02T00:20:13;96405.56;;;3.35;69.26
29247;BME280;16272;48.188;9.964;2023-02-02T00:22:38;96398.06;;;3.43;69.54
29247;BME280;16272;48.188;9.964;2023-02-02T00:25:04;96395.03;;;3.20;70.05
29247;BME280;16272;48.188;9.964;2023-02-02T00:27:29;96399.28;;;3.37;69.15
29247;BME280;16272;48.188;9.964;2023-02-02T00:29:54;96400.31;;;3.35;70.33
29247;BME280;16272;48.188;9.964;2023-02-02T00:32:21;96405.94;;;3.28;70.18
29247;BME280;16272;48.188;9.964;2023-02-02T00:34:47;96415.56;;;3.28;70.38
29247;BME280;16272;48.188;9.964;2023-02-02T00:37:12;96404.13;;;3.29;70.31
29247;BME280;16272;48.188;9.964;2023-02-02T00:39:37;96401.88;;;3.23;70.52
29247;BME280;16272;48.188;9.964;2023-02-02T00:42:03;96412.50;;;3.36;70.29
29247;BME280;16272;48.188;9.964;2023-02-02T00:44:28;96425.28;;;3.11;70.68
29247;BME280;16272;48.188;9.964;2023-02-02T00:47:12;96408.09;;;3.36;70.80
29247;BME280;16272;48.188;9.964;2023-02-02T00:49:37;96410.16;;;3.60;69.71
29247;BME280;16272;48.188;9.964;2023-02-02T00:52:03;96412.47;;;3.07;71.84
29247;BME280;16272;48.188;9.964;2023-02-02T00:54:28;96410.09;;;3.02;72.10
29247;BME280;16272;48.188;9.964;2023-02-02T00:56:54;96407.88;;;3.10;71.12
29247;BME280;16272;48.188;9.964;2023-02-02T00:59:19;96405.28;;;3.25;71.16
29247;BME280;16272;48.188;9.964;2023-02-02T01:01:44;96422.69;;;3.26;71.31
29247;BME280;16272;48.188;9.964;2023-02-02T01:04:10;96418.78;;;3.33;71.36
29247;BME280;16272;48.188;9.964;2023-02-02T01:06:35;96417.81;;;3.20;71.41
29247;BME280;16272;48.188;9.964;2023-02-02T01:09:01;96432.75;;;3.03;72.18
29247;BME280;16272;48.188;9.964;2023-02-02T01:11:26;96424.75;;;3.21;72.11
29247;BME280;16272;48.188;9.964;2023-02-02T01:13:52;96417.22;;;3.00;72.23
29247;BME280;16272;48.188;9.964;2023-02-02T01:16:17;96430.28;;;3.16;72.48
29247;BME280;16272;48.188;9.964;2023-02-02T01:18:43;96432.75;;;3.03;72.55
29247;BME280;16272;48.188;9.964;2023-02-02T01:21:11;96426.53;;;3.20;72.06
29247;BME280;16272;48.188;9.964;2023-02-02T01:23:37;96419.03;;;3.14;72.31
29247;BME280;16272;48.188;9.964;2023-02-02T01:26:06;96408.31;;;3.03;72.21
29247;BME280;16272;48.188;9.964;2023-02-02T01:28:32;96405.81;;;3.16;72.31
29247;BME280;16272;48.188;9.964;2023-02-02T01:30:58;96401.41;;;3.16;71.88
29247;BME280;16272;48.188;9.964;2023-02-02T01:33:24;96404.09;;;3.15;72.08
29247;BME280;16272;48.188;9.964;2023-02-02T01:35:54;96401.00;;;3.08;72.49
29247;BME280;16272;48.188;9.964;2023-02-02T01:38:21;96402.63;;;3.10;72.23
29247;BME280;16272;48.188;9.964;2023-02-02T01:40:53;96403.16;;;3.01;72.96
29247;BME280;16272;48.188;9.964;2023-02-02T01:45:50;96398.84;;;3.15;72.00
29247;BME280;16272;48.188;9.964;2023-02-02T01:48:18;96410.31;;;2.83;73.01
29247;BME280;16272;48.188;9.964;2023-02-02T01:50:45;96406.34;;;3.06;72.83
29247;BME280;16272;48.188;9.964;2023-02-02T01:53:11;96420.38;;;2.91;73.17
29247;BME280;16272;48.188;9.964;2023-02-02T01:55:38;96408.75;;;2.95;73.08
29247;BME280;16272;48.188;9.964;2023-02-02T01:58:08;96414.59;;;3.00;72.70
29247;BME280;16272;48.188;9.964;2023-02-02T02:00:34;96400.91;;;3.09;72.40
29247;BME280;16272;48.188;9.964;2023-02-02T02:03:04;96411.78;;;3.03;72.61
29247;BME280;16272;48.188;9.964;2023-02-02T02:05:35;96402.97;;;3.04;72.37
29247;BME280;16272;48.188;9.964;2023-02-02T02:08:36;96397.00;;;3.17;72.48
29247;BME280;16272;48.188;9.964;2023-02-02T02:11:02;96408.53;;;3.14;72.14
29247;BME280;16272;48.188;9.964;2023-02-02T02:13:29;96400.75;;;3.12;72.34
29247;BME280;16272;48.188;9.964;2023-02-02T02:35:57;96387.00;;;2.93;73.23
29247;BME280;16272;48.188;9.964;2023-02-02T02:39:01;96403.88;;;2.89;73.66
29247;BME280;16272;48.188;9.964;2023-02-02T02:41:26;96390.97;;;3.00;73.72
29247;BME280;16272;48.188;9.964;2023-02-02T02:44:00;96391.00;;;3.29;72.58
29247;BME280;16272;48.188;9.964;2023-02-02T02:46:26;96390.38;;;2.95;73.76
29247;BME280;16272;48.188;9.964;2023-02-02T02:48:52;96392.13;;;3.10;73.54
29247;BME280;16272;48.188;9.964;2023-02-02T02:51:42;96384.44;;;3.07;73.08
29247;BME280;16272;48.188;9.964;2023-02-02T02:54:09;96379.88;;;2.95;74.45
29247;BME280;16272;48.188;9.964;2023-02-02T02:56:48;96383.13;;;3.00;74.21
29247;BME280;16272;48.188;9.964;2023-02-02T03:02:05;96380.09;;;2.92;74.51
29247;BME280;16272;48.188;9.964;2023-02-02T03:07:28;96373.38;;;3.02;73.24
29247;BME280;16272;48.188;9.964;2023-02-02T03:09:58;96382.91;;;3.03;73.83
29247;BME280;16272;48.188;9.964;2023-02-02T03:12:25;96386.88;;;3.10;73.59
29247;BME280;16272;48.188;9.964;2023-02-02T03:14:50;96380.50;;;3.00;73.47
29247;BME280;16272;48.188;9.964;2023-02-02T03:17:16;96386.31;;;3.05;73.84
29247;BME280;16272;48.188;9.964;2023-02-02T03:19:41;96368.69;;;3.22;72.72
29247;BME280;16272;48.188;9.964;2023-02-02T03:22:06;96371.31;;;3.07;73.43
29247;BME280;16272;48.188;9.964;2023-02-02T03:24:32;96365.31;;;3.20;72.96
29247;BME280;16272;48.188;9.964;2023-02-02T03:26:57;96365.09;;;2.94;73.66
29247;BME280;16272;48.188;9.964;2023-02-02T03:29:22;96379.34;;;3.04;73.44
29247;BME280;16272;48.188;9.964;2023-02-02T03:31:48;96384.75;;;3.31;72.68
29247;BME280;16272;48.188;9.964;2023-02-02T03:34:14;96377.44;;;3.37;72.60
29247;BME280;16272;48.188;9.964;2023-02-02T03:36:39;96386.31;;;3.20;73.48
29247;BME280;16272;48.188;9.964;2023-02-02T03:39:04;96388.53;;;3.11;73.42
29247;BME280;16272;48.188;9.964;2023-02-02T03:41:30;96395.13;;;3.19;72.75
29247;BME280;16272;48.188;9.964;2023-02-02T03:43:55;96382.97;;;3.32;73.25
29247;BME280;16272;48.188;9.964;2023-02-02T03:46:20;96385.38;;;3.21;72.97
29247;BME280;16272;48.188;9.964;2023-02-02T03:48:46;96372.34;;;3.19;73.37
29247;BME280;16272;48.188;9.964;2023-02-02T03:51:13;96382.75;;;3.21;73.40
29247;BME280;16272;48.188;9.964;2023-02-02T03:53:39;96379.75;;;3.27;73.35
29247;BME280;16272;48.188;9.964;2023-02-02T03:56:05;96374.75;;;3.08;73.67
29247;BME280;16272;48.188;9.964;2023-02-02T03:58:30;96369.78;;;3.03;73.57
29247;BME280;16272;48.188;9.964;2023-02-02T04:01:04;96371.84;;;2.98;73.67
29247;BME280;16272;48.188;9.964;2023-02-02T04:03:30;96379.91;;;3.09;73.35
29247;BME280;16272;48.188;9.964;2023-02-02T04:05:55;96375.63;;;3.23;72.79
29247;BME280;16272;48.188;9.964;2023-02-02T04:08:20;96386.88;;;3.10;73.10
29247;BME280;16272;48.188;9.964;2023-02-02T04:10:45;96373.72;;;2.96;73.91
29247;BME280;16272;48.188;9.964;2023-02-02T04:13:11;96385.91;;;3.11;74.03
29247;BME280;16272;48.188;9.964;2023-02-02T04:15:36;96386.28;;;2.91;73.77
29247;BME280;16272;48.188;9.964;2023-02-02T04:18:01;96383.13;;;3.15;73.59
29247;BME280;16272;48.188;9.964;2023-02-02T04:20:26;96387.28;;;3.33;72.43
29247;BME280;16272;48.188;9.964;2023-02-02T04:22:53;96390.81;;;3.32;73.25
29247;BME280;16272;48.188;9.964;2023-02-02T04:25:18;96394.56;;;3.28;73.10
29247;BME280;16272;48.188;9.964;2023-02-02T04:27:43;96387.34;;;3.17;73.41
29247;BME280;16272;48.188;9.964;2023-02-02T04:30:09;96398.84;;;3.15;73.68
29247;BME280;16272;48.188;9.964;2023-02-02T04:32:34;96406.19;;;3.24;73.43
29247;BME280;16272;48.188;9.964;2023-02-02T04:35:00;96403.38;;;3.12;73.87
29247;BME280;16272;48.188;9.964;2023-02-02T04:37:25;96406.16;;;3.09;74.41
29247;BME280;16272;48.188;9.964;2023-02-02T04:39:50;96418.59;;;3.36;72.95
29247;BME280;16272;48.188;9.964;2023-02-02T04:42:16;96415.94;;;3.22;73.44
29247;BME280;16272;48.188;9.964;2023-02-02T04:44:41;96419.31;;;3.24;73.09
29247;BME280;16272;48.188;9.964;2023-02-02T04:47:09;96430.75;;;3.08;73.84
29247;BME280;16272;48.188;9.964;2023-02-02T04:49:35;96422.88;;;3.23;73.72
29247;BME280;16272;48.188;9.964;2023-02-02T04:52:00;96427.75;;;3.29;72.53
29247;BME280;16272;48.188;9.964;2023-02-02T04:54:25;96437.22;;;3.17;73.37
29247;BME280;16272;48.188;9.964;2023-02-02T04:56:50;96430.38;;;3.29;72.81
29247;BME280;16272;48.188;9.964;2023-02-02T04:59:16;96415.66;;;3.12;73.26
29247;BME280;16272;48.188;9.964;2023-02-02T05:01:41;96410.97;;;3.17;73.35
29247;BME280;16272;48.188;9.964;2023-02-02T05:04:06;96407.31;;;3.20;73.35
29247;BME280;16272;48.188;9.964;2023-02-02T05:06:32;96423.44;;;3.13;73.48
29247;BME280;16272;48.188;9.964;2023-02-02T05:08:57;96417.16;;;3.16;73.29
29247;BME280;16272;48.188;9.964;2023-02-02T05:11:23;96427.91;;;2.97;74.01
29247;BME280;16272;48.188;9.964;2023-02-02T05:13:52;96426.53;;;2.90;74.28
29247;BME280;16272;48.188;9.964;2023-02-02T05:16:18;96419.94;;;2.99;73.80
29247;BME280;16272;48.188;9.964;2023-02-02T05:18:48;96420.03;;;2.97;74.05
29247;BME280;16272;48.188;9.964;2023-02-02T05:21:14;96413.41;;;2.75;74.54
29247;BME280;16272;48.188;9.964;2023-02-02T05:23:39;96428.06;;;2.94;74.63
29247;BME280;16272;48.188;9.964;2023-02-02T05:26:05;96440.06;;;2.98;74.10
29247;BME280;16272;48.188;9.964;2023-02-02T05:28:30;96436.53;;;2.99;73.80
29247;BME280;16272;48.188;9.964;2023-02-02T05:30:55;96443.09;;;3.06;73.68
29247;BME280;16272;48.188;9.964;2023-02-02T05:33:21;96436.00;;;3.08;73.44
29247;BME280;16272;48.188;9.964;2023-02-02T05:35:47;96432.81;;;3.18;73.44
29247;BME280;16272;48.188;9.964;2023-02-02T05:38:14;96435.03;;;3.09;73.56
29247;BME280;16272;48.188;9.964;2023-02-02T05:40:39;96439.72;;;3.04;73.53
29247;BME280;16272;48.188;9.964;2023-02-02T05:43:04;96436.28;;;2.88;74.31
29247;BME280;16272;48.188;9.964;2023-02-02T05:45:30;96429.34;;;2.87;74.53
29247;BME280;16272;48.188;9.964;2023-02-02T05:47:55;96428.13;;;3.08;74.06
29247;BME280;16272;48.188;9.964;2023-02-02T05:50:21;96441.91;;;3.12;73.67
29247;BME280;16272;48.188;9.964;2023-02-02T05:52:47;96434.91;;;3.27;73.31
29247;BME280;16272;48.188;9.964;2023-02-02T05:55:12;96459.13;;;3.02;73.65
29247;BME280;16272;48.188;9.964;2023-02-02T05:57:38;96453.19;;;2.98;73.87
29247;BME280;16272;48.188;9.964;2023-02-02T06:00:04;96466.66;;;3.22;73.88
29247;BME280;16272;48.188;9.964;2023-02-02T06:02:29;96469.13;;;3.25;73.08
29247;BME280;16272;48.188;9.964;2023-02-02T06:04:54;96468.06;;;3.13;73.85
29247;BME280;16272;48.188;9.964;2023-02-02T06:07:20;96465.25;;;3.17;72.75
29247;BME280;16272;48.188;9.964;2023-02-02T06:09:45;96465.44;;;3.13;72.96
29247;BME280;16272;48.188;9.964;2023-02-02T06:12:10;96482.69;;;3.18;73.86
29247;BME280;16272;48.188;9.964;2023-02-02T06:14:35;96470.94;;;3.09;73.99
29247;BME280;16272;48.188;9.964;2023-02-02T06:17:01;96454.44;;;3.07;73.81
29247;BME280;16272;48.188;9.964;2023-02-02T06:19:26;96458.59;;;2.95;74.81
29247;BME280;16272;48.188;9.964;2023-02-02T06:21:51;96457.88;;;3.38;73.23
29247;BME280;16272;48.188;9.964;2023-02-02T06:24:17;96458.88;;;3.21;73.78
29247;BME280;16272;48.188;9.964;2023-02-02T06:26:42;96459.06;;;3.18;74.03
29247;BME280;16272;48.188;9.964;2023-02-02T06:29:11;96475.75;;;3.17;74.20
29247;BME280;16272;48.188;9.964;2023-02-02T06:31:37;96473.53;;;3.25;73.97
29247;BME280;16272;48.188;9.964;2023-02-02T06:34:03;96477.50;;;3.16;74.21
29247;BME280;16272;48.188;9.964;2023-02-02T06:36:28;96483.13;;;3.40;73.25
29247;BME280;16272;48.188;9.964;2023-02-02T06:38:55;96487.22;;;3.30;73.83
29247;BME280;16272;48.188;9.964;2023-02-02T06:41:20;96496.69;;;3.33;73.26
29247;BME280;16272;48.188;9.964;2023-02-02T06:43:47;96491.13;;;3.23;73.58
29247;BME280;16272;48.188;9.964;2023-02-02T06:46:12;96500.78;;;3.22;73.87
29247;BME280;16272;48.188;9.964;2023-02-02T06:48:38;96496.47;;;3.21;73.70
29247;BME280;16272;48.188;9.964;2023-02-02T06:51:04;96502.81;;;3.47;73.42
29247;BME280;16272;48.188;9.964;2023-02-02T06:53:30;96501.44;;;3.26;74.24
29247;BME280;16272;48.188;9.964;2023-02-02T06:55:57;96505.03;;;3.25;73.94
29247;BME280;16272;48.188;9.964;2023-02-02T06:58:23;96509.03;;;3.46;74.01
29247;BME280;16272;48.188;9.964;2023-02-02T07:00:48;96495.00;;;3.31;73.77
29247;BME280;16272;48.188;9.964;2023-02-02T07:03:17;96514.81;;;3.37;73.62
29247;BME280;16272;48.188;9.964;2023-02-02T07:05:43;96516.50;;;3.38;74.08
29247;BME280;16272;48.188;9.964;2023-02-02T07:08:08;96504.44;;;3.20;74.62
29247;BME280;16272;48.188;9.964;2023-02-02T07:10:36;96509.22;;;3.72;72.37
29247;BME280;16272;48.188;9.964;2023-02-02T07:13:02;96511.25;;;3.38;74.02
29247;BME280;16272;48.188;9.964;2023-02-02T07:15:28;96516.84;;;3.32;74.64
29247;BME280;16272;48.188;9.964;2023-02-02T07:17:53;96519.69;;;3.43;74.19
29247;BME280;16272;48.188;9.964;2023-02-02T07:20:19;96516.16;;;3.44;74.35
29247;BME280;16272;48.188;9.964;2023-02-02T07:22:44;96509.72;;;3.34;74.01
29247;BME280;16272;48.188;9.964;2023-02-02T07:25:09;96508.66;;;3.53;73.59
29247;BME280;16272;48.188;9.964;2023-02-02T07:27:34;96518.13;;;3.55;73.66
29247;BME280;16272;48.188;9.964;2023-02-02T07:30:00;96517.16;;;3.42;74.34
29247;BME280;16272;48.188;9.964;2023-02-02T07:32:25;96505.25;;;3.50;73.91
29247;BME280;16272;48.188;9.964;2023-02-02T07:34:50;96499.69;;;3.71;73.47
29247;BME280;16272;48.188;9.964;2023-02-02T07:37:16;96496.94;;;3.58;74.11
29247;BME280;16272;48.188;9.964;2023-02-02T07:39:41;96488.50;;;3.53;74.23
29247;BME280;16272;48.188;9.964;2023-02-02T07:42:10;96491.03;;;3.55;74.07
29247;BME280;16272;48.188;9.964;2023-02-02T07:44:35;96499.66;;;3.57;73.54
29247;BME280;16272;48.188;9.964;2023-02-02T07:47:01;96500.41;;;3.44;74.70
29247;BME280;16272;48.188;9.964;2023-02-02T07:49:26;96503.50;;;3.65;74.29
29247;BME280;16272;48.188;9.964;2023-02-02T07:51:51;96499.47;;;3.60;74.58
29247;BME280;16272;48.188;9.964;2023-02-02T07:54:17;96503.53;;;3.80;74.03
29247;BME280;16272;48.188;9.964;2023-02-02T07:56:43;96518.13;;;3.55;74.61
29247;BME280;16272;48.188;9.964;2023-02-02T07:59:09;96524.81;;;3.61;74.06
29247;BME280;16272;48.188;9.964;2023-02-02T08:01:35;96524.78;;;3.46;74.52
29247;BME280;16272;48.188;9.964;2023-02-02T08:04:00;96523.34;;;3.85;73.78
29247;BME280;16272;48.188;9.964;2023-02-02T08:06:39;96532.13;;;3.70;73.68
29247;BME280;16272;48.188;9.964;2023-02-02T08:09:06;96540.00;;;3.70;74.70
29247;BME280;16272;48.188;9.964;2023-02-02T08:11:33;96549.53;;;3.87;73.79
29247;BME280;16272;48.188;9.964;2023-02-02T08:14:00;96544.66;;;4.10;73.25
29247;BME280;16272;48.188;9.964;2023-02-02T08:16:26;96545.66;;;3.78;74.30
29247;BME280;16272;48.188;9.964;2023-02-02T08:18:52;96547.47;;;3.92;73.77
29247;BME280;16272;48.188;9.964;2023-02-02T08:21:18;96562.63;;;3.73;74.58
29247;BME280;16272;48.188;9.964;2023-02-02T08:23:45;96553.22;;;3.68;74.92
29247;BME280;16272;48.188;9.964;2023-02-02T08:26:12;96549.63;;;3.85;73.78
29247;BME280;16272;48.188;9.964;2023-02-02T08:28:38;96550.53;;;3.84;74.40
29247;BME280;16272;48.188;9.964;2023-02-02T08:31:12;96551.47;;;3.69;74.41
29247;BME280;16272;48.188;9.964;2023-02-02T08:33:38;96560.75;;;3.75;74.59
29247;BME280;16272;48.188;9.964;2023-02-02T08:36:04;96561.41;;;3.78;74.15
29247;BME280;16272;48.188;9.964;2023-02-02T08:38:29;96553.25;;;3.83;74.57
29247;BME280;16272;48.188;9.964;2023-02-02T08:40:55;96525.91;;;3.57;74.90
29247;BME280;16272;48.188;9.964;2023-02-02T08:43:21;96539.56;;;3.78;74.63
29247;BME280;16272;48.188;9.964;2023-02-02T08:45:46;96537.06;;;3.91;73.92
29247;BME280;16272;48.188;9.964;2023-02-02T08:48:12;96534.59;;;3.88;74.81
29247;BME280;16272;48.188;9.964;2023-02-02T08:50:39;96534.69;;;4.15;73.96
29247;BME280;16272;48.188;9.964;2023-02-02T08:53:04;96544.63;;;3.81;74.71
29247;BME280;16272;48.188;9.964;2023-02-02T08:55:30;96541.47;;;4.04;73.80
29247;BME280;16272;48.188;9.964;2023-02-02T08:57:55;96541.19;;;4.23;73.81
29247;BME280;16272;48.188;9.964;2023-02-02T09:00:21;96549.25;;;4.06;73.78
29247;BME280;16272;48.188;9.964;2023-02-02T09:02:49;96553.09;;;4.29;73.51
29247;BME280;16272;48.188;9.964;2023-02-02T09:05:15;96556.22;;;4.21;73.31
29247;BME280;16272;48.188;9.964;2023-02-02T09:07:40;96559.94;;;4.03;73.92
29247;BME280;16272;48.188;9.964;2023-02-02T09:10:06;96561.28;;;4.10;74.03
29247;BME280;16272;48.188;9.964;2023-02-02T09:12:31;96569.56;;;4.18;73.77
29247;BME280;16272;48.188;9.964;2023-02-02T09:14:56;96560.06;;;4.30;73.10
29247;BME280;16272;48.188;9.964;2023-02-02T09:17:22;96563.63;;;4.29;73.46
29247;BME280;16272;48.188;9.964;2023-02-02T09:19:48;96572.19;;;4.18;73.89
29247;BME280;16272;48.188;9.964;2023-02-02T09:22:13;96579.69;;;4.39;73.01
29247;BME280;16272;48.188;9.964;2023-02-02T09:24:38;96581.38;;;4.26;73.44
29247;BME280;16272;48.188;9.964;2023-02-02T09:27:04;96590.41;;;4.21;73.73
29247;BME280;16272;48.188;9.964;2023-02-02T09:29:29;96602.22;;;4.29;73.28
29247;BME280;16272;48.188;9.964;2023-02-02T09:31:54;96580.25;;;4.30;73.25
29247;BME280;16272;48.188;9.964;2023-02-02T09:34:19;96590.00;;;4.28;73.73
29247;BME280;16272;48.188;9.964;2023-02-02T09:36:45;96592.28;;;4.34;73.59
29247;BME280;16272;48.188;9.964;2023-02-02T09:39:11;96603.72;;;4.18;73.67
29247;BME280;16272;48.188;9.964;2023-02-02T09:44:27;96595.28;;;4.42;72.83
29247;BME280;16272;48.188;9.964;2023-02-02T09:52:03;96598.28;;;4.36;72.61
29247;BME280;16272;48.188;9.964;2023-02-02T09:54:40;96613.88;;;4.39;73.07
29247;BME280;16272;48.188;9.964;2023-02-02T09:57:15;96605.97;;;4.24;73.00
29247;BME280;16272;48.188;9.964;2023-02-02T09:59:44;96593.19;;;4.47;72.45
29247;BME280;16272;48.188;9.964;2023-02-02T10:02:25;96599.88;;;4.53;72.84
29247;BME280;16272;48.188;9.964;2023-02-02T10:04:55;96589.19;;;4.41;72.38
29247;BME280;16272;48.188;9.964;2023-02-02T10:07:38;96590.75;;;4.73;71.81
29247;BME280;16272;48.188;9.964;2023-02-02T10:10:34;96587.91;;;4.90;71.58
29247;BME280;16272;48.188;9.964;2023-02-02T10:13:15;96595.66;;;4.65;72.17
29247;BME280;16272;48.188;9.964;2023-02-02T10:15:51;96594.59;;;4.67;72.30
29247;BME280;16272;48.188;9.964;2023-02-02T10:18:25;96599.38;;;4.89;72.08
29247;BME280;16272;48.188;9.964;2023-02-02T10:20:56;96615.38;;;4.43;72.90
29247;BME280;16272;48.188;9.964;2023-02-02T10:23:28;96589.19;;;4.97;71.92
29247;BME280;16272;48.188;9.964;2023-02-02T10:26:07;96598.53;;;4.74;72.70
29247;BME280;16272;48.188;9.964;2023-02-02T10:29:07;96605.00;;;4.97;73.25
29247;BME280;16272;48.188;9.964;2023-02-02T10:34:56;96602.72;;;5.06;71.20
29247;BME280;16272;48.188;9.964;2023-02-02T10:37:37;96618.31;;;5.09;70.94
29247;BME280;16272;48.188;9.964;2023-02-02T10:40:35;96604.16;;;5.24;70.56
29247;BME280;16272;48.188;9.964;2023-02-02T10:43:31;96606.22;;;5.33;70.24
29247;BME280;16272;48.188;9.964;2023-02-02T10:48:47;96613.47;;;4.88;71.14
29247;BME280;16272;48.188;9.964;2023-02-02T10:51:19;96596.00;;;4.73;72.10
29247;BME280;16272;48.188;9.964;2023-02-02T10:53:49;96596.38;;;4.81;72.70
29247;BME280;16272;48.188;9.964;2023-02-02T10:56:24;96606.53;;;4.87;72.71
29247;BME280;16272;48.188;9.964;2023-02-02T10:59:10;96598.28;;;4.65;72.65
29247;BME280;16272;48.188;9.964;2023-02-02T11:01:37;96608.81;;;5.06;72.67
29247;BME280;16272;48.188;9.964;2023-02-02T11:04:03;96599.38;;;4.75;73.29
29247;BME280;16272;48.188;9.964;2023-02-02T11:06:47;96595.19;;;4.72;72.93
29247;BME280;16272;48.188;9.964;2023-02-02T11:09:21;96599.91;;;4.94;71.69
29247;BME280;16272;48.188;9.964;2023-02-02T11:11:58;96601.22;;;5.02;72.80
29247;BME280;16272;48.188;9.964;2023-02-02T11:14:46;96603.09;;;5.00;72.96
29247;BME280;16272;48.188;9.964;2023-02-02T11:17:24;96602.53;;;4.53;74.17
29247;BME280;16272;48.188;9.964;2023-02-02T11:19:50;96604.47;;;4.78;74.07
29247;BME280;16272;48.188;9.964;2023-02-02T11:22:35;96597.63;;;5.03;73.50
29247;BME280;16272;48.188;9.964;2023-02-02T11:25:05;96604.09;;;4.55;75.40
29247;BME280;16272;48.188;9.964;2023-02-02T11:27:34;96619.19;;;4.95;74.87
29247;BME280;16272;48.188;9.964;2023-02-02T11:30:23;96612.25;;;4.65;75.31
29247;BME280;16272;48.188;9.964;2023-02-02T11:32:51;96613.78;;;4.55;75.73
29247;BME280;16272;48.188;9.964;2023-02-02T11:35:26;96620.63;;;4.72;75.98
29247;BME280;16272;48.188;9.964;2023-02-02T11:40:26;96616.41;;;4.69;75.89
29247;BME280;16272;48.188;9.964;2023-02-02T11:42:56;96619.50;;;4.62;76.89
29247;BME280;16272;48.188;9.964;2023-02-02T11:45:29;96611.16;;;4.69;77.04
29247;BME280;16272;48.188;9.964;2023-02-02T11:48:03;96606.16;;;4.79;75.62
29247;BME280;16272;48.188;9.964;2023-02-02T11:50:30;96589.38;;;4.53;76.11
29247;BME280;16272;48.188;9.964;2023-02-02T11:52:56;96607.09;;;4.78;74.93
29247;BME280;16272;48.188;9.964;2023-02-02T11:55:26;96604.69;;;5.17;74.05
29247;BME280;16272;48.188;9.964;2023-02-02T11:58:43;96601.09;;;4.62;76.27
29247;BME280;16272;48.188;9.964;2023-02-02T12:01:22;96602.22;;;4.57;75.08
29247;BME280;16272;48.188;9.964;2023-02-02T12:03:48;96613.28;;;4.91;75.38
29247;BME280;16272;48.188;9.964;2023-02-02T12:06:28;96608.75;;;4.93;75.53
29247;BME280;16272;48.188;9.964;2023-02-02T12:08:59;96608.44;;;4.71;75.79
29247;BME280;16272;48.188;9.964;2023-02-02T12:14:30;96611.97;;;4.84;75.98
29247;BME280;16272;48.188;9.964;2023-02-02T12:17:26;96601.88;;;5.05;76.35
29247;BME280;16272;48.188;9.964;2023-02-02T12:25:53;96593.28;;;4.74;75.71
29247;BME280;16272;48.188;9.964;2023-02-02T12:28:41;96596.66;;;5.18;74.78
29247;BME280;16272;48.188;9.964;2023-02-02T12:34:07;96610.47;;;4.80;76.21
29247;BME280;16272;48.188;9.964;2023-02-02T12:36:48;96607.19;;;5.18;74.70
29247;BME280;16272;48.188;9.964;2023-02-02T12:39:22;96605.00;;;4.97;75.58
29247;BME280;16272;48.188;9.964;2023-02-02T12:42:02;96604.06;;;4.99;74.61
29247;BME280;16272;48.188;9.964;2023-02-02T12:44:48;96608.16;;;4.61;76.97
29247;BME280;16272;48.188;9.964;2023-02-02T12:47:36;96602.88;;;4.61;76.20
29247;BME280;16272;48.188;9.964;2023-02-02T12:53:08;96601.91;;;4.76;75.87
29247;BME280;16272;48.188;9.964;2023-02-02T12:56:43;96592.84;;;4.53;77.26
29247;BME280;16272;48.188;9.964;2023-02-02T13:07:15;96626.28;;;4.66;76.48
29247;BME280;16272;48.188;9.964;2023-02-02T13:12:15;96621.94;;;4.50;77.47
29247;BME280;16272;48.188;9.964;2023-02-02T13:14:46;96609.25;;;4.71;77.61
29247;BME280;16272;48.188;9.964;2023-02-02T13:17:18;96613.88;;;4.39;78.84
29247;BME280;16272;48.188;9.964;2023-02-02T13:19:49;96598.09;;;4.39;78.60
29247;BME280;16272;48.188;9.964;2023-02-02T13:22:18;96611.72;;;4.60;78.22
29247;BME280;16272;48.188;9.964;2023-02-02T13:24:47;96620.06;;;4.67;77.67
29247;BME280;16272;48.188;9.964;2023-02-02T13:27:18;96630.50;;;4.68;77.72
29247;BME280;16272;48.188;9.964;2023-02-02T13:29:49;96629.66;;;4.82;77.06
29247;BME280;16272;48.188;9.964;2023-02-02T13:32:21;96632.16;;;4.84;77.06
29247;BME280;16272;48.188;9.964;2023-02-02T13:34:59;96640.38;;;4.65;78.33
29247;BME280;16272;48.188;9.964;2023-02-02T13:37:34;96640.75;;;4.58;77.80
29247;BME280;16272;48.188;9.964;2023-02-02T13:40:05;96652.59;;;4.66;77.93
29247;BME280;16272;48.188;9.964;2023-02-02T13:42:59;96649.47;;;4.73;77.78
29247;BME280;16272;48.188;9.964;2023-02-02T13:45:50;96638.66;;;4.64;78.21
29247;BME280;16272;48.188;9.964;2023-02-02T13:56:58;96660.75;;;4.32;80.07
29247;BME280;16272;48.188;9.964;2023-02-02T14:02:29;96656.72;;;4.55;79.41
29247;BME280;16272;48.188;9.964;2023-02-02T14:04:59;96664.59;;;4.41;78.52
29247;BME280;16272;48.188;9.964;2023-02-02T14:07:45;96670.78;;;4.26;79.40
29247;BME280;16272;48.188;9.964;2023-02-02T14:10:31;96676.16;;;4.38;79.47
29247;BME280;16272;48.188;9.964;2023-02-02T14:13:23;96682.47;;;4.65;78.18
29247;BME280;16272;48.188;9.964;2023-02-02T14:16:20;96684.06;;;4.53;78.27
29247;BME280;16272;48.188;9.964;2023-02-02T14:26:42;96683.88;;;4.41;78.53
29247;BME280;16272;48.188;9.964;2023-02-02T14:32:00;96694.22;;;4.45;78.19
29247;BME280;16272;48.188;9.964;2023-02-02T14:34:34;96688.38;;;4.39;77.37
29247;BME280;16272;48.188;9.964;2023-02-02T14:37:32;96702.19;;;4.57;78.03
29247;BME280;16272;48.188;9.964;2023-02-02T14:42:55;96701.78;;;4.49;78.37
29247;BME280;16272;48.188;9.964;2023-02-02T14:45:47;96712.50;;;4.32;78.71
29247;BME280;16272;48.188;9.964;2023-02-02T14:50:52;96730.25;;;4.42;78.81
29247;BME280;16272;48.188;9.964;2023-02-02T14:56:00;96732.81;;;4.58;77.94
29247;BME280;16272;48.188;9.964;2023-02-02T14:58:30;96725.44;;;4.20;79.28
29247;BME280;16272;48.188;9.964;2023-02-02T15:06:31;96728.66;;;4.40;79.70
29247;BME280;16272;48.188;9.964;2023-02-02T15:17:47;96739.31;;;4.22;79.05